Time;durP1;ratioP1;P1;durP2;ratioP2;P2;SDS_P1;SDS_P2;PMS_P1;PMS_P2;Temp;Humidity;BMP_temperature;BMP_pressure;BME280_temperature;BME280_humidity;BME280_pressure;Samples;Min_cycle;Max_cycle;Signal;HPM_P1;HPM_P2
2023/02/20 00:02:16;;;;;;;4.60;2.80;;;;;;;0.22;84.13;97145.45;108768;1272;22517;-79
2023/02/20 00:04:52;;;;;;;9.70;3.70;;;;;;;0.21;84.13;97146.63;108778;1272;24251;-79
2023/02/20 00:07:28;;;;;;;10.90;4.90;;;;;;;0.20;84.42;97149.39;108817;1272;22530;-78
2023/02/20 00:09:59;;;;;;;9.50;4.50;;;;;;;0.19;84.80;97149.27;108797;1272;44057;-78
2023/02/20 00:12:32;;;;;;;7.40;3.80;;;;;;;0.17;84.71;97148.31;108813;1272;22537;-79
2023/02/20 00:15:03;;;;;;;8.60;3.70;;;;;;;0.17;84.62;97149.88;108847;1272;25444;-79
2023/02/20 00:17:37;;;;;;;9.30;3.60;;;;;;;0.17;85.09;97136.40;108805;1270;23977;-79
2023/02/20 00:20:10;;;;;;;10.40;4.30;;;;;;;0.17;85.07;97143.45;108824;1272;34529;-78
2023/02/20 00:22:43;;;;;;;11.30;3.80;;;;;;;0.17;85.07;97143.45;108848;1272;22555;-79
2023/02/20 00:25:15;;;;;;;6.60;3.10;;;;;;;0.16;85.19;97140.41;108827;1272;22562;-79
2023/02/20 00:27:46;;;;;;;7.20;3.30;;;;;;;0.17;85.29;97142.33;108835;1272;25047;-79
2023/02/20 00:30:20;;;;;;;6.90;3.30;;;;;;;0.18;85.31;97140.65;108695;1269;37227;-79
2023/02/20 00:32:53;;;;;;;8.80;3.20;;;;;;;0.18;85.44;97146.54;108842;1273;22595;-78
2023/02/20 00:35:27;;;;;;;15.40;4.60;;;;;;;0.17;85.38;97148.23;108739;1273;22510;-79
2023/02/20 00:37:59;;;;;;;4.90;2.60;;;;;;;0.16;85.37;97155.54;108746;1254;25444;-79
2023/02/20 00:40:30;;;;;;;8.60;3.90;;;;;;;0.15;85.43;97154.09;108836;1272;36528;-78
2023/02/20 00:43:03;;;;;;;7.50;3.00;;;;;;;0.15;85.25;97160.17;108941;1272;22518;-79
2023/02/20 00:45:35;;;;;;;10.90;4.40;;;;;;;0.16;85.41;97158.50;108948;1272;23997;-78
2023/02/20 00:48:07;;;;;;;6.20;2.90;;;;;;;0.17;85.42;97152.76;108905;1253;22637;-79
2023/02/20 00:50:38;;;;;;;10.30;3.30;;;;;;;0.17;85.29;97151.36;107391;1272;2011881;-78
2023/02/20 00:53:11;;;;;;;6.70;3.10;;;;;;;0.19;84.87;97146.42;108935;1250;22614;-78
2023/02/20 00:55:44;;;;;;;5.20;2.60;;;;;;;0.20;84.78;97143.86;108944;1272;22518;-78
2023/02/20 00:58:15;;;;;;;9.90;3.10;;;;;;;0.20;84.56;97139.36;108889;1271;22563;-78
2023/02/20 01:00:47;;;;;;;6.60;2.40;;;;;;;0.20;84.72;97144.02;108845;1269;34801;-79
2023/02/20 01:03:21;;;;;;;6.90;3.20;;;;;;;0.21;84.15;97138.40;108757;1272;22578;-79
2023/02/20 01:05:52;;;;;;;6.70;2.60;;;;;;;0.21;84.46;97135.95;108788;1273;22532;-79
2023/02/20 01:08:23;;;;;;;6.80;2.50;;;;;;;0.21;84.28;97127.89;108814;1272;22520;-78
2023/02/20 01:10:55;;;;;;;5.50;1.80;;;;;;;0.21;84.18;97120.79;108733;1272;40713;-79
2023/02/20 01:13:26;;;;;;;4.80;2.20;;;;;;;0.21;83.98;97113.77;108827;1272;25510;-79
2023/02/20 01:15:57;;;;;;;6.40;2.10;;;;;;;0.23;83.89;97111.28;108840;1270;23888;-79
2023/02/20 01:18:28;;;;;;;9.50;3.30;;;;;;;0.23;84.04;97111.13;108870;1272;22940;-78
2023/02/20 01:20:59;;;;;;;5.10;2.40;;;;;;;0.20;84.03;97106.59;108797;1272;42349;-79
2023/02/20 01:23:31;;;;;;;6.60;2.50;;;;;;;0.19;84.07;97110.81;108845;1266;23930;-79
2023/02/20 01:26:04;;;;;;;10.40;2.90;;;;;;;0.19;83.95;97112.21;108849;1272;22571;-78
2023/02/20 01:28:35;;;;;;;5.40;2.10;;;;;;;0.20;83.98;97119.67;108840;1272;24204;-79
2023/02/20 01:31:09;;;;;;;6.30;3.20;;;;;;;0.20;83.93;97121.23;108775;1272;39209;-78
2023/02/20 01:33:43;;;;;;;7.30;2.50;;;;;;;0.20;83.85;97131.38;108829;1272;22573;-79
2023/02/20 01:36:16;;;;;;;10.70;3.30;;;;;;;0.22;84.01;97133.58;109022;1272;22563;-78
2023/02/20 01:38:49;;;;;;;6.00;2.50;;;;;;;0.22;83.96;97141.12;108809;1271;22533;-78
2023/02/20 01:41:21;;;;;;;7.50;2.20;;;;;;;0.23;84.14;97142.25;108807;1273;22523;-79
2023/02/20 01:43:55;;;;;;;7.80;2.80;;;;;;;0.24;84.15;97138.64;108818;1272;24186;-78
2023/02/20 01:46:50;;;;;;;6.40;2.60;;;;;;;0.25;84.39;97145.61;108815;1270;24181;-78
2023/02/20 01:49:32;;;;;;;8.70;2.70;;;;;;;0.25;83.76;97139.20;108978;1272;25279;-78
2023/02/20 01:52:15;;;;;;;10.60;3.10;;;;;;;0.27;84.00;97139.63;108841;1270;24242;-79
2023/02/20 01:54:52;;;;;;;7.20;3.10;;;;;;;0.27;83.93;97136.50;108830;1272;24212;-78
2023/02/20 01:57:28;;;;;;;10.70;4.00;;;;;;;0.27;84.01;97128.04;108868;1270;22539;-78
2023/02/20 02:00:04;;;;;;;6.20;2.20;;;;;;;0.26;84.19;97123.75;108840;1267;22698;-78
2023/02/20 02:02:38;;;;;;;6.70;2.70;;;;;;;0.26;84.19;97122.83;108838;1272;22575;-79
2023/02/20 02:05:11;;;;;;;5.30;2.70;;;;;;;0.27;84.09;97118.90;108828;1272;24174;-79
2023/02/20 02:07:44;;;;;;;5.60;2.30;;;;;;;0.27;84.09;97114.73;108885;1272;22523;-79
2023/02/20 02:10:17;;;;;;;7.90;2.50;;;;;;;0.28;84.21;97114.25;108761;1272;22534;-78
2023/02/20 02:12:53;;;;;;;8.20;3.20;;;;;;;0.30;84.13;97114.27;108871;1272;22588;-78
2023/02/20 02:15:29;;;;;;;5.90;2.20;;;;;;;0.30;84.10;97112.54;108867;1272;23799;-79
2023/02/20 02:18:35;;;;;;;6.20;2.40;;;;;;;0.30;84.23;97106.40;108897;1270;23097;-78
2023/02/20 02:21:39;;;;;;;6.00;2.40;;;;;;;0.31;83.89;97100.42;108781;1258;35368;-78
2023/02/20 02:24:31;;;;;;;5.10;2.10;;;;;;;0.31;83.95;97096.54;108896;1272;22555;-78
2023/02/20 02:27:40;;;;;;;5.80;2.40;;;;;;;0.33;83.80;97089.27;108852;1251;22531;-79
2023/02/20 02:30:43;;;;;;;5.00;1.70;;;;;;;0.34;83.97;97081.67;108798;1267;25480;-79
2023/02/20 02:33:49;;;;;;;7.90;2.90;;;;;;;0.34;83.81;97071.65;108814;1272;22524;-78
2023/02/20 02:36:47;;;;;;;3.50;2.00;;;;;;;0.33;83.89;97076.59;108699;1267;135323;-79
2023/02/20 02:39:30;;;;;;;8.70;2.50;;;;;;;0.33;83.68;97075.10;108862;1267;23844;-78
2023/02/20 02:42:10;;;;;;;6.70;2.10;;;;;;;0.33;83.84;97081.00;108832;1272;24490;-78
2023/02/20 02:44:46;;;;;;;4.40;2.00;;;;;;;0.32;84.08;97086.70;108858;1272;22671;-79
2023/02/20 02:47:27;;;;;;;5.80;1.50;;;;;;;0.33;83.99;97079.91;108834;1261;22701;-79
2023/02/20 02:50:02;;;;;;;7.70;2.60;;;;;;;0.35;83.77;97088.58;108788;1267;105418;-78
2023/02/20 02:52:47;;;;;;;5.50;2.10;;;;;;;0.34;83.67;97086.58;108896;1272;22528;-78
2023/02/20 02:55:23;;;;;;;11.80;3.50;;;;;;;0.36;83.49;97083.92;108897;1272;22526;-78
2023/02/20 02:57:58;;;;;;;6.80;2.40;;;;;;;0.34;83.34;97080.63;108925;1272;22524;-78
2023/02/20 03:00:33;;;;;;;4.40;1.50;;;;;;;0.34;83.54;97079.48;108779;1253;25683;-78
2023/02/20 03:03:09;;;;;;;4.60;1.60;;;;;;;0.36;83.22;97080.95;108752;1267;22648;-78
2023/02/20 03:05:46;;;;;;;8.10;2.50;;;;;;;0.35;83.36;97079.19;108742;1273;22555;-78
2023/02/20 03:08:30;;;;;;;5.50;1.90;;;;;;;0.34;83.29;97075.70;108796;1270;22630;-78
2023/02/20 03:11:12;;;;;;;12.30;4.10;;;;;;;0.32;83.08;97076.39;108705;1269;40143;-78
2023/02/20 03:16:45;;;;;;;3.50;1.90;;;;;;;0.29;83.23;97078.92;108712;1267;23297;-79
2023/02/20 03:19:21;;;;;;;3.90;1.30;;;;;;;0.26;83.47;97071.20;108726;1273;45363;-79
2023/02/20 03:21:54;;;;;;;3.80;1.40;;;;;;;0.25;83.50;97064.06;108783;1273;22530;-79
2023/02/20 03:24:27;;;;;;;3.50;1.50;;;;;;;0.24;83.74;97055.00;108769;1270;25912;-79
2023/02/20 03:27:02;;;;;;;7.40;2.40;;;;;;;0.24;83.42;97043.05;108782;1273;22544;-78
2023/02/20 03:29:37;;;;;;;10.90;2.00;;;;;;;0.21;83.60;97026.01;108674;1264;41660;-78
2023/02/20 03:43:35;;;;;;;4.20;1.20;;;;;;;0.18;83.30;97002.67;108806;1272;23907;-78
2023/02/20 03:46:10;;;;;;;5.00;1.90;;;;;;;0.18;82.91;97006.13;108742;1273;22575;-78
2023/02/20 03:48:53;;;;;;;5.50;2.30;;;;;;;0.18;82.94;97006.65;108740;1274;22530;-78
2023/02/20 03:51:24;;;;;;;3.00;1.10;;;;;;;0.15;83.21;97006.09;108852;1272;23004;-79
2023/02/20 03:53:57;;;;;;;4.80;1.60;;;;;;;0.13;83.45;97005.64;108842;1264;22533;-78
2023/02/20 03:56:35;;;;;;;7.40;2.50;;;;;;;0.10;83.37;97014.10;108772;1265;24215;-78
2023/02/20 03:59:13;;;;;;;4.30;1.50;;;;;;;0.08;83.30;97007.48;108793;1267;22894;-78
2023/02/20 04:01:50;;;;;;;3.80;1.50;;;;;;;0.10;83.49;97006.73;108841;1270;25266;-78
2023/02/20 04:04:26;;;;;;;3.70;1.70;;;;;;;0.09;83.32;97000.04;108784;1266;25259;-78
2023/02/20 04:06:58;;;;;;;4.50;1.60;;;;;;;0.10;83.21;96991.77;108845;1272;22537;-78
2023/02/20 04:09:34;;;;;;;3.30;1.80;;;;;;;0.11;83.13;96986.79;108774;1270;96216;-79
2023/02/20 04:12:11;;;;;;;3.70;1.90;;;;;;;0.08;83.17;96991.29;108817;1272;22544;-79
2023/02/20 04:14:44;;;;;;;2.70;1.60;;;;;;;0.02;83.20;96986.17;108827;1272;22540;-79
2023/02/20 04:17:19;;;;;;;5.30;1.00;;;;;;;0.01;83.43;96992.27;108798;1269;25199;-79
2023/02/20 04:19:52;;;;;;;4.60;1.40;;;;;;;-0.03;83.61;97003.48;108837;1266;24204;-79
2023/02/20 04:22:29;;;;;;;2.30;1.30;;;;;;;-0.04;83.39;97008.98;108863;1272;22540;-79
2023/02/20 04:25:07;;;;;;;5.60;1.60;;;;;;;-0.05;83.67;97006.93;108871;1272;26721;-79
2023/02/20 04:27:38;;;;;;;3.10;1.40;;;;;;;-0.08;83.47;97006.94;108880;1257;22648;-79
2023/02/20 04:30:13;;;;;;;5.10;1.70;;;;;;;-0.04;83.44;97009.65;108801;1270;22639;-79
2023/02/20 04:32:44;;;;;;;2.80;1.50;;;;;;;0.01;83.35;97013.16;108889;1272;24891;-79
2023/02/20 04:35:21;;;;;;;6.70;1.10;;;;;;;-0.00;83.10;97014.11;108849;1266;25076;-79
2023/02/20 04:37:52;;;;;;;1.90;0.90;;;;;;;-0.01;83.02;97003.72;108920;1272;24091;-79
2023/02/20 04:40:27;;;;;;;2.80;1.10;;;;;;;-0.02;82.71;96997.58;108882;1265;25301;-79
2023/02/20 04:43:01;;;;;;;2.80;1.30;;;;;;;-0.06;82.97;96999.44;108868;1272;22524;-79
2023/02/20 04:45:33;;;;;;;6.40;2.00;;;;;;;-0.14;82.95;96993.48;108886;1266;25273;-79
2023/02/20 04:48:06;;;;;;;3.40;1.10;;;;;;;-0.12;82.90;96997.81;108885;1265;22516;-79
2023/02/20 04:50:37;;;;;;;3.20;1.60;;;;;;;-0.14;82.87;96986.89;108780;1272;121129;-79
2023/02/20 04:53:08;;;;;;;5.30;1.60;;;;;;;-0.19;82.66;96983.20;108873;1272;24983;-79
2023/02/20 04:55:41;;;;;;;3.00;1.60;;;;;;;-0.25;83.07;96970.27;108825;1272;22525;-80
2023/02/20 04:58:12;;;;;;;6.40;1.50;;;;;;;-0.27;83.16;96975.45;109205;1272;22527;-80
2023/02/20 05:00:44;;;;;;;4.70;1.50;;;;;;;-0.28;83.32;96964.42;109233;1272;24188;-79
2023/02/20 05:03:18;;;;;;;2.20;1.10;;;;;;;-0.24;83.09;96970.50;109174;1272;22623;-80
2023/02/20 05:05:49;;;;;;;4.10;1.40;;;;;;;-0.22;83.04;96977.08;109221;1272;22515;-80
2023/02/20 05:08:34;;;;;;;4.00;1.20;;;;;;;-0.26;82.92;96977.36;109219;1264;22711;-80
2023/02/20 05:11:06;;;;;;;3.00;1.50;;;;;;;-0.30;82.98;96969.88;109182;1272;29708;-80
2023/02/20 05:13:37;;;;;;;5.00;1.40;;;;;;;-0.27;82.85;96972.83;109233;1264;24019;-79
2023/02/20 05:16:09;;;;;;;4.10;1.80;;;;;;;-0.25;82.73;96979.08;109246;1266;22688;-79
2023/02/20 05:18:42;;;;;;;6.80;2.00;;;;;;;-0.26;82.41;96984.63;109255;1272;23297;-79
2023/02/20 05:24:06;;;;;;;6.50;1.80;;;;;;;-0.31;82.66;96983.98;109143;1272;22530;-79
2023/02/20 05:26:37;;;;;;;5.10;1.40;;;;;;;-0.26;82.22;96975.87;109201;1272;24219;-80
2023/02/20 05:29:08;;;;;;;4.10;1.60;;;;;;;-0.24;82.00;96981.37;109177;1272;22628;-80
2023/02/20 05:31:41;;;;;;;5.40;1.70;;;;;;;-0.25;82.33;96982.02;109174;1272;22524;-79
2023/02/20 05:34:13;;;;;;;3.20;1.00;;;;;;;-0.27;81.89;96973.00;109179;1267;23274;-80
2023/02/20 05:36:44;;;;;;;2.90;1.30;;;;;;;-0.26;81.90;96965.98;109188;1265;24192;-79
2023/02/20 05:39:15;;;;;;;3.00;1.30;;;;;;;-0.26;81.47;96966.74;109175;1272;22627;-79
2023/02/20 05:41:48;;;;;;;6.10;1.90;;;;;;;-0.30;81.81;96966.77;109247;1272;22584;-80
2023/02/20 05:44:19;;;;;;;4.60;2.10;;;;;;;-0.33;81.65;96956.75;109213;1272;22517;-79
2023/02/20 05:46:52;;;;;;;6.50;1.50;;;;;;;-0.37;81.74;96956.15;109215;1268;22563;-79
2023/02/20 05:49:27;;;;;;;1.30;0.80;;;;;;;-0.37;81.50;96949.46;109126;1269;22552;-80
2023/02/20 05:51:59;;;;;;;3.70;1.20;;;;;;;-0.34;81.49;96952.98;109236;1272;23283;-80
2023/02/20 05:54:31;;;;;;;3.30;1.60;;;;;;;-0.32;81.31;96953.45;109181;1272;23429;-80
2023/02/20 05:57:02;;;;;;;5.50;2.00;;;;;;;-0.26;81.23;96970.51;109182;1265;22543;-79
2023/02/20 05:59:33;;;;;;;5.80;1.50;;;;;;;-0.24;81.18;96971.18;109190;1265;22523;-79
2023/02/20 06:02:06;;;;;;;3.80;1.60;;;;;;;-0.19;81.06;96974.46;109192;1248;22536;-80
2023/02/20 06:04:39;;;;;;;2.80;1.10;;;;;;;-0.12;80.65;96977.40;109201;1272;22543;-80
2023/02/20 06:07:10;;;;;;;6.10;1.40;;;;;;;0.01;79.93;96980.08;109260;1272;22518;-79
2023/02/20 06:09:52;;;;;;;4.30;1.40;;;;;;;0.30;79.44;96976.54;109230;1271;22630;-79
2023/02/20 06:12:25;;;;;;;3.60;1.30;;;;;;;0.63;78.56;96978.32;109362;1271;23428;-80
2023/02/20 06:14:56;;;;;;;6.50;1.80;;;;;;;0.82;77.62;96986.37;109246;1268;22631;-80
2023/02/20 06:17:29;;;;;;;4.30;1.50;;;;;;;1.19;77.01;96984.87;109238;1265;22631;-80
2023/02/20 06:20:03;;;;;;;3.30;1.40;;;;;;;1.54;75.92;96986.98;107176;1269;2611703;-80
2023/02/20 06:22:34;;;;;;;4.20;1.80;;;;;;;1.88;74.37;96974.64;109202;1272;25244;-80
2023/02/20 06:25:05;;;;;;;3.50;1.30;;;;;;;2.09;73.08;96980.58;109219;1270;22564;-80
2023/02/20 06:27:40;;;;;;;3.90;2.10;;;;;;;2.29;72.04;96979.89;109212;1272;22517;-80
2023/02/20 06:30:13;;;;;;;4.20;1.30;;;;;;;2.46;71.33;96984.16;107536;1272;1991384;-77
2023/02/20 06:32:48;;;;;;;3.80;1.60;;;;;;;2.47;69.80;96983.55;108914;1272;23191;-77
2023/02/20 06:35:19;;;;;;;5.30;1.90;;;;;;;2.03;70.31;96990.36;108879;1272;22555;-80
2023/02/20 06:37:54;;;;;;;3.40;1.30;;;;;;;1.58;71.17;96988.29;109229;1272;22577;-80
2023/02/20 06:40:31;;;;;;;3.10;1.80;;;;;;;1.28;71.92;96982.30;109233;1266;25520;-79
2023/02/20 06:43:02;;;;;;;4.60;1.40;;;;;;;1.04;73.06;96982.66;109261;1268;22740;-79
2023/02/20 06:45:34;;;;;;;5.50;1.80;;;;;;;0.88;73.94;96970.96;109286;1272;22527;-80
2023/02/20 06:48:08;;;;;;;5.80;1.90;;;;;;;0.75;74.49;96973.36;109260;1266;25846;-80
2023/02/20 06:50:39;;;;;;;3.10;1.70;;;;;;;0.67;74.96;96972.70;109078;1268;98972;-79
2023/02/20 06:53:11;;;;;;;2.30;1.60;;;;;;;0.63;75.68;96977.17;109134;1265;22540;-80
2023/02/20 06:55:45;;;;;;;5.20;1.90;;;;;;;0.64;75.86;96987.80;109152;1273;25441;-79
2023/02/20 06:58:16;;;;;;;5.50;2.30;;;;;;;0.63;76.47;96989.69;109110;1273;22733;-79
2023/02/20 07:00:47;;;;;;;2.90;1.30;;;;;;;0.60;76.39;96981.23;109061;1273;22521;-79
2023/02/20 07:03:20;;;;;;;3.80;1.90;;;;;;;0.58;76.48;96980.24;109112;1270;24764;-80
2023/02/20 07:05:53;;;;;;;6.20;2.10;;;;;;;0.58;76.46;96980.61;109138;1273;24252;-80
2023/02/20 07:08:24;;;;;;;4.50;2.10;;;;;;;0.59;76.54;96969.73;109128;1273;23789;-79
2023/02/20 07:10:59;;;;;;;6.80;2.00;;;;;;;0.61;76.49;96968.95;109119;1268;25435;-80
2023/02/20 07:13:30;;;;;;;7.30;2.60;;;;;;;0.65;76.49;96966.64;109135;1272;22590;-80
2023/02/20 07:16:07;;;;;;;5.60;2.10;;;;;;;0.69;76.39;96966.73;109084;1273;23549;-80
2023/02/20 07:18:38;;;;;;;6.00;1.80;;;;;;;0.75;76.16;96966.02;109133;1273;23113;-80
2023/02/20 07:21:09;;;;;;;2.00;1.30;;;;;;;0.80;76.05;96962.89;109092;1270;24170;-79
2023/02/20 07:23:43;;;;;;;7.30;2.10;;;;;;;0.85;75.94;96958.66;109138;1268;25282;-80
2023/02/20 07:26:21;;;;;;;7.60;3.20;;;;;;;0.91;75.67;96947.10;109147;1265;23635;-79
2023/02/20 07:28:54;;;;;;;8.50;2.30;;;;;;;0.96;75.99;96943.41;109101;1269;23081;-79
2023/02/20 07:31:28;;;;;;;6.50;2.40;;;;;;;1.00;75.63;96923.61;109115;1273;22670;-79
2023/02/20 07:33:59;;;;;;;7.80;3.00;;;;;;;1.01;75.60;96922.00;109153;1273;22549;-80
2023/02/20 07:36:30;;;;;;;5.50;1.90;;;;;;;1.05;75.62;96922.25;109085;1273;23888;-80
2023/02/20 07:39:06;;;;;;;5.70;2.60;;;;;;;1.07;75.53;96913.88;109133;1273;22517;-79
2023/02/20 07:41:39;;;;;;;7.50;2.20;;;;;;;1.09;75.62;96912.38;109097;1265;22521;-80
2023/02/20 07:44:14;;;;;;;5.90;3.20;;;;;;;1.11;75.18;96911.02;109148;1273;22529;-80
2023/02/20 07:46:45;;;;;;;8.00;3.40;;;;;;;1.13;75.01;96913.42;109109;1273;22527;-80
2023/02/20 07:49:16;;;;;;;8.90;3.00;;;;;;;1.21;75.27;96923.84;109075;1273;22591;-80
2023/02/20 07:51:52;;;;;;;8.30;3.20;;;;;;;1.29;74.69;96905.77;109099;1273;22529;-79
2023/02/20 07:54:23;;;;;;;7.50;2.80;;;;;;;1.36;74.82;96914.05;109090;1273;25421;-80
2023/02/20 07:56:59;;;;;;;9.30;4.80;;;;;;;1.56;74.58;96918.80;109124;1273;22532;-79
2023/02/20 07:59:30;;;;;;;7.30;3.10;;;;;;;1.80;74.36;96920.86;107232;1267;2480652;-80
2023/02/20 08:02:04;;;;;;;6.10;2.80;;;;;;;1.96;72.97;96921.60;109161;1273;23899;-80
2023/02/20 08:04:35;;;;;;;3.90;1.60;;;;;;;2.17;72.30;96922.80;109193;1265;22562;-80
2023/02/20 08:07:06;;;;;;;7.20;3.10;;;;;;;2.37;70.35;96921.63;109249;1272;25980;-80
2023/02/20 08:09:37;;;;;;;4.90;2.20;;;;;;;2.59;70.02;96915.41;109190;1265;22536;-80
2023/02/20 08:12:14;;;;;;;5.30;2.30;;;;;;;2.67;68.41;96911.52;109113;1273;22536;-80
2023/02/20 08:14:45;;;;;;;3.50;1.50;;;;;;;2.66;65.66;96906.05;109091;1273;25310;-80
2023/02/20 08:17:20;;;;;;;6.00;2.70;;;;;;;2.59;64.71;96902.98;109100;1273;22626;-79
2023/02/20 08:19:52;;;;;;;2.90;1.90;;;;;;;2.70;65.63;96896.21;109099;1273;22571;-80
2023/02/20 08:22:26;;;;;;;5.00;1.80;;;;;;;2.90;65.43;96883.96;109161;1272;22517;-80
2023/02/20 08:24:58;;;;;;;5.40;2.10;;;;;;;3.04;65.03;96878.65;109135;1267;25193;-80
2023/02/20 08:27:31;;;;;;;5.50;1.70;;;;;;;3.14;64.52;96885.36;109098;1273;22605;-80
2023/02/20 08:30:02;;;;;;;2.70;1.50;;;;;;;3.13;63.41;96894.17;109105;1272;23319;-80
2023/02/20 08:32:34;;;;;;;4.10;1.20;;;;;;;3.03;63.39;96896.64;109123;1273;23884;-80
2023/02/20 08:35:06;;;;;;;3.30;1.80;;;;;;;2.92;62.77;96898.04;109094;1273;24245;-80
2023/02/20 08:37:40;;;;;;;6.70;1.60;;;;;;;2.86;63.06;96891.20;109130;1272;22555;-80
2023/02/20 08:40:14;;;;;;;6.20;1.60;;;;;;;2.91;63.78;96878.91;109076;1265;22516;-80
2023/02/20 08:42:49;;;;;;;4.70;1.30;;;;;;;2.97;64.20;96885.80;109227;1265;22586;-80
2023/02/20 08:45:21;;;;;;;2.90;1.40;;;;;;;3.00;63.92;96888.14;109194;1272;22517;-80
2023/02/20 08:47:58;;;;;;;3.10;1.70;;;;;;;3.07;64.83;96890.45;109174;1272;22555;-80
2023/02/20 08:50:31;;;;;;;2.70;1.40;;;;;;;3.17;64.45;96875.04;109132;1272;24023;-80
2023/02/20 08:53:05;;;;;;;2.70;1.40;;;;;;;3.17;63.20;96868.15;109227;1266;24176;-80
2023/02/20 08:55:42;;;;;;;2.00;1.20;;;;;;;3.16;63.41;96863.14;109135;1272;22516;-80
2023/02/20 08:58:13;;;;;;;3.10;1.40;;;;;;;3.09;62.98;96860.33;109248;1266;22530;-80
2023/02/20 09:00:44;;;;;;;3.20;1.20;;;;;;;3.03;63.66;96862.02;108901;1272;22542;-78
2023/02/20 09:03:19;;;;;;;4.30;1.50;;;;;;;3.06;63.59;96863.71;108805;1271;22514;-78
2023/02/20 09:05:50;;;;;;;5.80;1.70;;;;;;;2.97;63.08;96857.48;108863;1262;22558;-80
2023/02/20 09:08:21;;;;;;;3.20;1.50;;;;;;;2.93;63.48;96855.07;109164;1272;22517;-80
2023/02/20 09:10:57;;;;;;;5.30;2.30;;;;;;;2.97;63.95;96848.89;109132;1272;22543;-80
2023/02/20 09:13:29;;;;;;;3.30;1.50;;;;;;;3.10;63.85;96832.56;109122;1272;24109;-80
2023/02/20 09:16:00;;;;;;;4.60;2.00;;;;;;;3.24;64.08;96839.86;109173;1268;23908;-80
2023/02/20 09:18:32;;;;;;;7.00;2.30;;;;;;;3.58;63.69;96846.61;109205;1271;24894;-80
2023/02/20 09:21:08;;;;;;;9.20;2.10;;;;;;;3.72;64.52;96838.98;109207;1272;22531;-80
2023/02/20 09:23:39;;;;;;;6.10;2.20;;;;;;;3.82;63.66;96840.77;109211;1272;22533;-80
2023/02/20 09:26:10;;;;;;;5.60;2.30;;;;;;;3.79;62.89;96839.19;109205;1272;22514;-80
2023/02/20 09:28:43;;;;;;;4.40;2.30;;;;;;;3.81;63.85;96843.73;109185;1272;22523;-80
2023/02/20 09:31:13;;;;;;;12.50;5.60;;;;;;;4.14;64.87;96842.70;107704;1271;2009399;-80
2023/02/20 09:33:48;;;;;;;4.10;2.20;;;;;;;4.41;64.47;96838.05;109177;1268;22543;-80
2023/02/20 09:36:19;;;;;;;4.50;1.90;;;;;;;4.54;63.86;96830.48;109185;1272;22596;-80
2023/02/20 09:38:50;;;;;;;5.10;2.50;;;;;;;4.48;63.40;96822.70;109188;1272;22602;-80
2023/02/20 09:41:38;;;;;;;4.60;2.10;;;;;;;4.58;64.36;96824.41;109155;1272;22552;-78
2023/02/20 09:44:19;;;;;;;4.60;2.10;;;;;;;4.62;63.60;96813.50;108780;1265;22595;-78
2023/02/20 09:46:55;;;;;;;4.10;2.10;;;;;;;4.48;64.00;96805.58;108851;1265;22665;-78
2023/02/20 09:49:37;;;;;;;4.30;1.70;;;;;;;4.54;64.82;96798.77;108810;1272;22651;-78
2023/02/20 09:52:15;;;;;;;9.90;2.30;;;;;;;4.60;64.58;96803.11;108824;1265;22532;-80
2023/02/20 09:54:54;;;;;;;5.00;1.90;;;;;;;4.47;64.32;96797.21;109194;1266;22789;-80
2023/02/20 09:57:29;;;;;;;5.00;2.00;;;;;;;4.23;64.47;96792.93;109193;1272;23857;-77
2023/02/20 10:00:09;;;;;;;5.00;2.20;;;;;;;4.09;65.67;96794.77;108789;1266;76220;-78
2023/02/20 10:02:45;;;;;;;4.50;2.00;;;;;;;4.06;66.28;96791.73;108797;1249;22571;-78
2023/02/20 10:05:25;;;;;;;4.50;1.70;;;;;;;4.05;66.85;96789.78;108786;1272;25356;-78
2023/02/20 10:07:57;;;;;;;3.90;1.60;;;;;;;4.11;67.19;96783.30;108793;1267;22531;-78
2023/02/20 10:10:32;;;;;;;5.60;1.70;;;;;;;4.17;67.52;96776.39;108836;1265;22528;-79
2023/02/20 10:13:16;;;;;;;3.40;1.90;;;;;;;4.17;67.60;96772.96;108867;1272;23936;-78
2023/02/20 10:15:58;;;;;;;3.80;1.80;;;;;;;4.19;68.12;96766.34;108811;1272;25027;-79
2023/02/20 10:18:41;;;;;;;3.00;1.40;;;;;;;4.22;68.26;96766.41;108772;1265;22544;-79
2023/02/20 10:21:25;;;;;;;2.80;1.60;;;;;;;4.19;68.48;96764.64;107301;1268;2003490;-79
2023/02/20 10:24:05;;;;;;;4.80;2.00;;;;;;;4.23;68.82;96757.77;108779;1272;22563;-79
2023/02/20 10:26:45;;;;;;;2.60;1.30;;;;;;;4.29;69.17;96761.23;108839;1272;24242;-79
2023/02/20 10:29:22;;;;;;;3.30;2.00;;;;;;;4.36;69.27;96750.61;108816;1268;22747;-79
2023/02/20 10:32:02;;;;;;;4.70;1.80;;;;;;;4.45;69.82;96751.45;108860;1265;23002;-78
2023/02/20 10:34:35;;;;;;;;;;;;;;;4.51;69.86;96748.15;108848;1272;24220;-78
2023/02/20 10:37:13;;;;;;;6.10;2.20;;;;;;;4.53;69.66;96730.59;108840;1250;22567;-78
2023/02/20 10:39:53;;;;;;;5.00;2.50;;;;;;;4.54;70.16;96726.72;108810;1272;31741;-78
2023/02/20 10:42:31;;;;;;;1.70;1.30;;;;;;;4.62;70.69;96715.82;108788;1272;25457;-78
2023/02/20 10:45:10;;;;;;;5.00;2.30;;;;;;;4.66;70.49;96705.31;108809;1266;22938;-78
2023/02/20 10:47:49;;;;;;;3.50;2.10;;;;;;;4.76;70.71;96696.63;108876;1264;22507;-79
2023/02/20 10:50:22;;;;;;;6.20;2.10;;;;;;;4.84;70.56;96695.48;108859;1272;22535;-80
2023/02/20 10:52:59;;;;;;;3.00;1.50;;;;;;;4.87;70.51;96675.77;108808;1254;22807;-79
2023/02/20 10:55:41;;;;;;;3.50;2.00;;;;;;;4.94;70.83;96673.21;108793;1272;22580;-79
2023/02/20 10:58:16;;;;;;;2.90;1.70;;;;;;;5.00;70.70;96667.30;108844;1272;22695;-78
2023/02/20 11:00:51;;;;;;;3.30;1.40;;;;;;;5.03;70.43;96658.30;108748;1261;54448;-79
2023/02/20 11:03:29;;;;;;;3.50;1.50;;;;;;;4.97;70.16;96652.92;108766;1265;25442;-79
2023/02/20 11:06:08;;;;;;;2.80;1.50;;;;;;;4.94;70.82;96661.96;108783;1265;22550;-79
2023/02/20 11:08:40;;;;;;;4.60;1.70;;;;;;;4.93;70.42;96656.38;108776;1268;23902;-79
2023/02/20 11:11:28;;;;;;;4.20;1.80;;;;;;;4.78;70.82;96652.27;108841;1265;85283;-79
2023/02/20 11:14:02;;;;;;;2.60;2.00;;;;;;;4.61;71.95;96651.52;108855;1271;23160;-78
2023/02/20 11:16:41;;;;;;;5.80;2.40;;;;;;;4.57;72.49;96647.07;108900;1269;26661;-81
2023/02/20 11:19:19;;;;;;;4.20;1.90;;;;;;;4.51;72.86;96635.15;108928;1266;22528;-79
2023/02/20 11:21:51;;;;;;;4.40;2.10;;;;;;;4.46;73.51;96640.28;108825;1273;22552;-79
2023/02/20 11:24:29;;;;;;;4.40;2.10;;;;;;;4.54;74.28;96629.05;108760;1272;22541;-79
2023/02/20 11:27:03;;;;;;;4.00;2.30;;;;;;;4.60;74.45;96612.50;108752;1273;24223;-79
2023/02/20 11:29:47;;;;;;;2.70;1.40;;;;;;;4.61;74.49;96592.35;108719;1265;26785;-79
2023/02/20 11:32:28;;;;;;;4.40;2.20;;;;;;;4.61;74.36;96587.73;108749;1273;23286;-79
2023/02/20 11:35:22;;;;;;;2.10;1.50;;;;;;;4.63;74.99;96585.88;108718;1270;23929;-79
2023/02/20 11:38:26;;;;;;;1.90;1.40;;;;;;;4.72;75.22;96589.62;108743;1274;22530;-78
2023/02/20 11:41:12;;;;;;;4.90;2.50;;;;;;;4.70;75.20;96583.56;108708;1272;55459;-79
2023/02/20 11:43:46;;;;;;;2.20;1.70;;;;;;;4.66;75.48;96574.54;109075;1273;22605;-79
2023/02/20 11:46:21;;;;;;;4.40;2.30;;;;;;;4.65;75.80;96556.23;108745;1266;22539;-79
2023/02/20 11:49:05;;;;;;;2.10;1.50;;;;;;;4.61;76.13;96547.52;108712;1266;22548;-79
2023/02/20 11:51:40;;;;;;;2.90;1.90;;;;;;;4.57;76.61;96543.00;108707;1273;56403;-79
2023/02/20 11:54:16;;;;;;;2.10;1.90;;;;;;;4.56;76.53;96539.46;109111;1273;25084;-79
2023/02/20 11:57:06;;;;;;;2.90;1.40;;;;;;;4.52;76.79;96554.96;108724;1268;24936;-79
2023/02/20 11:59:40;;;;;;;2.00;1.50;;;;;;;4.45;77.03;96565.29;108712;1266;38114;-78
2023/02/20 12:02:29;;;;;;;4.50;1.90;;;;;;;4.41;77.26;96568.27;108739;1273;22573;-79
2023/02/20 12:05:10;;;;;;;1.90;1.30;;;;;;;4.32;77.63;96558.23;108773;1267;22532;-79
2023/02/20 12:07:45;;;;;;;1.50;1.10;;;;;;;4.34;78.08;96561.48;108786;1272;23273;-79
2023/02/20 12:10:27;;;;;;;2.80;1.50;;;;;;;4.37;78.38;96555.98;108753;1267;37544;-78
2023/02/20 12:12:59;;;;;;;2.10;1.70;;;;;;;4.36;78.42;96531.08;108773;1269;22524;-79
2023/02/20 12:15:31;;;;;;;3.00;1.70;;;;;;;4.37;78.59;96516.00;108730;1273;23827;-78
2023/02/20 12:18:26;;;;;;;2.70;1.80;;;;;;;4.44;78.95;96517.39;108731;1270;22585;-78
2023/02/20 12:21:04;;;;;;;2.90;1.90;;;;;;;4.55;79.13;96514.15;108699;1253;43681;-78
2023/02/20 12:23:44;;;;;;;2.30;1.90;;;;;;;4.64;78.97;96518.89;108787;1273;24970;-78
2023/02/20 12:26:30;;;;;;;3.10;2.10;;;;;;;4.69;78.57;96513.29;108824;1268;22520;-79
2023/02/20 12:29:19;;;;;;;3.00;1.90;;;;;;;4.62;78.18;96511.91;108730;1273;22574;-79